createdAt,value
2017-09-17T00:00:42.749Z,12.7
2017-09-17T00:01:42.741Z,12.88
2017-09-17T00:02:42.098Z,12.86
2017-09-17T00:03:42.699Z,12.82
2017-09-17T00:04:42.673Z,12.83
2017-09-17T00:05:42.669Z,12.97
2017-09-17T00:06:42.630Z,12.92
2017-09-17T00:07:42.606Z,12.96
2017-09-17T00:08:42.599Z,13.01
2017-09-17T00:09:42.261Z,12.67
2017-09-17T00:10:42.249Z,12.61
2017-09-17T00:11:42.219Z,12.58
2017-09-17T00:12:42.508Z,12.5
2017-09-17T00:13:42.190Z,12.4
2017-09-17T00:14:42.153Z,12.5
2017-09-17T00:15:42.150Z,12.53
2017-09-17T00:16:42.119Z,12.57
2017-09-17T00:17:42.417Z,12.49
2017-09-17T00:18:42.089Z,12.43
2017-09-17T00:19:42.070Z,12.48
2017-09-17T00:20:42.369Z,12.49
2017-09-17T00:21:42.033Z,12.55
2017-09-17T00:22:42.319Z,12.43
2017-09-17T00:23:42.290Z,12.45
2017-09-17T00:24:42.279Z,12.46
2017-09-17T00:25:41.943Z,12.45
2017-09-17T00:26:41.942Z,12.42
2017-09-17T00:27:41.910Z,12.43
2017-09-17T00:28:41.920Z,12.49
2017-09-17T00:29:42.181Z,12.53
2017-09-17T00:30:41.925Z,12.6
2017-09-17T00:31:42.148Z,12.67
2017-09-17T00:32:42.262Z,12.61
2017-09-17T00:33:42.350Z,12.68
2017-09-17T00:34:41.788Z,12.7
2017-09-17T00:35:42.049Z,12.7
2017-09-17T00:36:42.119Z,12.63
2017-09-17T00:37:41.396Z,12.61
2017-09-17T00:38:42.016Z,12.6
2017-09-17T00:39:41.668Z,12.58
2017-09-17T00:40:41.961Z,12.58
2017-09-17T00:41:41.639Z,12.5
2017-09-17T00:42:42.048Z,12.52
2017-09-17T00:43:41.585Z,12.48
2017-09-17T00:44:41.941Z,12.49
2017-09-17T00:45:41.860Z,12.4
2017-09-17T00:46:41.540Z,12.45
2017-09-17T00:47:41.849Z,12.45
2017-09-17T00:48:41.191Z,12.5
2017-09-17T00:49:41.849Z,12.48
2017-09-17T00:50:41.767Z,12.43
2017-09-17T00:51:41.440Z,12.46
2017-09-17T00:52:41.837Z,12.39
2017-09-17T00:53:41.390Z,12.34
2017-09-17T00:54:41.778Z,12.17
2017-09-17T00:55:41.055Z,12.2
2017-09-17T00:56:41.099Z,12.17
2017-09-17T00:57:41.652Z,12.1
2017-09-17T00:58:41.628Z,12.06
2017-09-17T00:59:40.969Z,11.99
2017-09-17T01:00:41.300Z,11.89
2017-09-17T01:01:41.568Z,11.97
2017-09-17T01:02:41.616Z,11.89
2017-09-17T01:03:41.598Z,11.9
2017-09-17T01:04:41.188Z,11.89
2017-09-17T01:05:41.557Z,12.06
2017-09-17T01:06:41.139Z,12.03
2017-09-17T01:07:41.118Z,12.02
2017-09-17T01:08:41.410Z,12.1
2017-09-17T01:09:41.198Z,12.23
2017-09-17T01:10:41.375Z,12.2
2017-09-17T01:11:41.378Z,12.17
2017-09-17T01:12:41.412Z,12.21
2017-09-17T01:13:41.008Z,12.24
2017-09-17T01:14:41.401Z,12.2
2017-09-17T01:15:40.970Z,12.31
2017-09-17T01:16:40.939Z,12.28
2017-09-17T01:17:41.245Z,12.31
2017-09-17T01:18:41.214Z,12.4
2017-09-17T01:19:41.198Z,12.34
2017-09-17T01:20:40.870Z,12.25
2017-09-17T01:21:40.853Z,12.23
2017-09-17T01:22:40.843Z,12.25
2017-09-17T01:23:41.222Z,12.28
2017-09-17T01:24:40.778Z,12.17
2017-09-17T01:25:41.071Z,12.28
2017-09-17T01:26:40.726Z,12.12
2017-09-17T01:27:40.712Z,12.2
2017-09-17T01:28:41.001Z,12.13
2017-09-17T01:29:40.789Z,12.03
2017-09-17T01:30:41.008Z,11.91
2017-09-17T01:31:40.642Z,11.91
2017-09-17T01:32:40.949Z,11.83
2017-09-17T01:33:41.169Z,11.83
2017-09-17T01:34:40.882Z,11.91
2017-09-17T01:35:40.558Z,11.95
2017-09-17T01:36:40.866Z,11.99
2017-09-17T01:37:40.841Z,12.02
2017-09-17T01:38:40.809Z,12.06
2017-09-17T01:39:40.804Z,12.13
2017-09-17T01:40:40.770Z,12.17
2017-09-17T01:41:40.764Z,12.21
2017-09-17T01:42:40.724Z,12.24
2017-09-17T01:43:40.721Z,12.23
2017-09-17T01:44:40.689Z,12.16
2017-09-17T01:45:40.699Z,11.97
2017-09-17T01:46:40.651Z,12.02
2017-09-17T01:47:40.326Z,11.91
2017-09-17T01:48:40.319Z,11.91
2017-09-17T01:49:40.279Z,11.91
2017-09-17T01:50:40.270Z,11.9
2017-09-17T01:51:40.552Z,11.71
2017-09-17T01:52:40.219Z,11.69
2017-09-17T01:53:40.510Z,11.64
2017-09-17T01:54:40.516Z,11.68
2017-09-17T01:55:40.465Z,11.64
2017-09-17T01:56:40.140Z,11.6
2017-09-17T01:57:40.118Z,11.58
2017-09-17T01:58:40.414Z,11.73
2017-09-17T01:59:40.398Z,11.76
2017-09-17T02:00:40.360Z,11.73
2017-09-17T02:01:40.339Z,11.58
2017-09-17T02:02:40.319Z,11.68
2017-09-17T02:03:40.310Z,11.72
2017-09-17T02:04:40.287Z,11.72
2017-09-17T02:05:40.262Z,11.72
2017-09-17T02:06:40.338Z,11.58
2017-09-17T02:07:39.927Z,11.43
2017-09-17T02:08:40.219Z,11.39
2017-09-17T02:09:40.210Z,11.46
2017-09-17T02:10:39.857Z,11.54
2017-09-17T02:11:39.830Z,11.58
2017-09-17T02:12:40.251Z,11.64
2017-09-17T02:13:40.117Z,11.71
2017-09-17T02:14:39.765Z,11.69
2017-09-17T02:15:39.749Z,11.72
2017-09-17T02:16:39.440Z,11.79
2017-09-17T02:17:39.727Z,11.75
2017-09-17T02:18:39.399Z,11.61
2017-09-17T02:19:39.668Z,11.58
2017-09-17T02:20:39.735Z,11.6
2017-09-17T02:21:39.928Z,11.56
2017-09-17T02:22:39.645Z,11.75
2017-09-17T02:23:39.586Z,11.72
2017-09-17T02:24:39.570Z,11.79
2017-09-17T02:25:39.238Z,11.72
2017-09-17T02:26:39.831Z,11.79
2017-09-17T02:27:39.199Z,11.83
2017-09-17T02:28:39.792Z,11.86
2017-09-17T02:29:39.781Z,11.81
2017-09-17T02:30:39.757Z,11.81
2017-09-17T02:31:39.736Z,11.81
2017-09-17T02:32:39.719Z,11.84
2017-09-17T02:33:39.388Z,11.81
2017-09-17T02:34:39.672Z,11.84
2017-09-17T02:35:39.671Z,11.81
2017-09-17T02:36:39.649Z,11.86
2017-09-17T02:37:39.298Z,11.84
2017-09-17T02:38:39.849Z,11.83
2017-09-17T02:39:39.583Z,11.83
2017-09-17T02:40:39.557Z,11.83
2017-09-17T02:41:39.536Z,11.68
2017-09-17T02:42:39.221Z,11.66
2017-09-17T02:43:39.518Z,11.56
2017-09-17T02:44:39.179Z,11.6
2017-09-17T02:45:39.458Z,11.61
2017-09-17T02:46:38.861Z,11.57
2017-09-17T02:47:39.420Z,11.6
2017-09-17T02:48:39.094Z,11.69
2017-09-17T02:49:39.095Z,11.76
2017-09-17T02:50:38.728Z,11.86
2017-09-17T02:51:38.708Z,11.86
2017-09-17T02:52:39.314Z,11.84
2017-09-17T02:53:38.980Z,11.87
2017-09-17T02:54:39.259Z,11.81
2017-09-17T02:55:38.989Z,11.94
2017-09-17T02:56:38.611Z,11.94
2017-09-17T02:57:39.208Z,11.98
2017-09-17T02:58:38.878Z,11.86
2017-09-17T02:59:39.160Z,11.84
2017-09-17T03:00:39.149Z,11.83
2017-09-17T03:01:38.819Z,11.89
2017-09-17T03:02:39.119Z,11.81
2017-09-17T03:03:39.109Z,11.95
2017-09-17T03:04:38.759Z,11.84
2017-09-17T03:05:38.738Z,11.83
2017-09-17T03:06:39.029Z,11.75
2017-09-17T03:07:39.009Z,11.81
2017-09-17T03:08:38.678Z,11.71
2017-09-17T03:09:39.026Z,11.75
2017-09-17T03:10:38.337Z,11.69
2017-09-17T03:11:38.938Z,11.86
2017-09-17T03:12:38.908Z,11.81
2017-09-17T03:13:38.263Z,11.86
2017-09-17T03:14:38.881Z,11.83
2017-09-17T03:15:38.539Z,11.72
2017-09-17T03:16:38.818Z,11.66
2017-09-17T03:17:38.185Z,11.54
2017-09-17T03:18:38.479Z,11.4
2017-09-17T03:19:38.771Z,11.38
2017-09-17T03:20:38.737Z,11.36
2017-09-17T03:21:38.420Z,11.35
2017-09-17T03:22:38.708Z,11.4
2017-09-17T03:23:38.379Z,11.43
2017-09-17T03:24:38.361Z,11.58
2017-09-17T03:25:38.638Z,11.6
2017-09-17T03:26:38.620Z,11.6
2017-09-17T03:27:38.299Z,11.6
2017-09-17T03:28:38.588Z,11.56
2017-09-17T03:29:38.572Z,11.5
2017-09-17T03:30:38.240Z,11.36
2017-09-17T03:31:38.519Z,11.47
2017-09-17T03:32:38.193Z,11.4
2017-09-17T03:33:38.511Z,11.33
2017-09-17T03:34:38.457Z,11.18
2017-09-17T03:35:38.439Z,11.11
2017-09-17T03:36:38.430Z,10.92
2017-09-17T03:37:38.394Z,10.59
2017-09-17T03:38:38.379Z,10.71
2017-09-17T03:39:38.038Z,10.77
2017-09-17T03:40:38.360Z,10.98
2017-09-17T03:41:38.316Z,11.03
2017-09-17T03:42:38.289Z,11.05
2017-09-17T03:43:38.276Z,11.2
2017-09-17T03:44:37.969Z,11.21
2017-09-17T03:45:37.919Z,11.31
2017-09-17T03:46:37.950Z,11.43
2017-09-17T03:47:38.190Z,11.47
2017-09-17T03:48:37.929Z,11.47
2017-09-17T03:49:37.849Z,11.51
2017-09-17T03:50:38.139Z,11.51
2017-09-17T03:51:37.799Z,11.57
2017-09-17T03:52:38.089Z,11.57
2017-09-17T03:53:38.069Z,11.56
2017-09-17T03:54:38.048Z,11.53
2017-09-17T03:55:38.028Z,11.57
2017-09-17T03:56:37.391Z,11.54
2017-09-17T03:57:37.985Z,11.47
2017-09-17T03:58:37.683Z,11.53
2017-09-17T03:59:37.943Z,11.51
2017-09-17T04:00:37.932Z,11.43
2017-09-17T04:01:37.910Z,11.36
2017-09-17T04:02:37.889Z,11.43
2017-09-17T04:03:37.880Z,11.39
2017-09-17T04:04:37.548Z,11.43
2017-09-17T04:05:37.860Z,11.43
2017-09-17T04:06:37.489Z,11.47
2017-09-17T04:07:37.480Z,11.4
2017-09-17T04:08:37.451Z,11.4
2017-09-17T04:09:37.464Z,11.39
2017-09-17T04:10:37.409Z,11.42
2017-09-17T04:11:37.689Z,11.38
2017-09-17T04:12:37.709Z,11.31
2017-09-17T04:13:37.351Z,11.21
2017-09-17T04:14:37.658Z,11.24
2017-09-17T04:15:37.321Z,11.33
2017-09-17T04:16:37.603Z,11.32
2017-09-17T04:17:37.579Z,11.13
2017-09-17T04:18:37.259Z,11.24
2017-09-17T04:19:37.552Z,11.13
2017-09-17T04:20:37.212Z,11.08
2017-09-17T04:21:37.179Z,11.15
2017-09-17T04:22:37.161Z,11.17
2017-09-17T04:23:36.839Z,11.13
2017-09-17T04:24:37.438Z,11.17
2017-09-17T04:25:37.417Z,11.13
2017-09-17T04:26:37.086Z,11.23
2017-09-17T04:27:37.049Z,11.33
2017-09-17T04:28:37.039Z,11.35
2017-09-17T04:29:37.320Z,11.32
2017-09-17T04:30:36.999Z,11.24
2017-09-17T04:31:37.290Z,11.23
2017-09-17T04:32:36.959Z,11.29
2017-09-17T04:33:37.260Z,11.24
2017-09-17T04:34:36.919Z,11.24
2017-09-17T04:35:37.216Z,11.23
2017-09-17T04:36:36.869Z,11.2
2017-09-17T04:37:37.158Z,11.21
2017-09-17T04:38:37.154Z,11.28
2017-09-17T04:39:37.130Z,11.15
2017-09-17T04:40:36.801Z,11.2
2017-09-17T04:41:36.779Z,11.15
2017-09-17T04:42:37.067Z,11.13
2017-09-17T04:43:36.737Z,11.13
2017-09-17T04:44:37.025Z,11.21
2017-09-17T04:45:37.000Z,11.21
2017-09-17T04:46:36.355Z,11.2
2017-09-17T04:47:36.646Z,11.15
2017-09-17T04:48:36.619Z,11.08
2017-09-17T04:49:36.612Z,11.21
2017-09-17T04:50:36.905Z,11.18
2017-09-17T04:51:36.882Z,11.2
2017-09-17T04:52:36.861Z,11.2
2017-09-17T04:53:36.517Z,11.18
2017-09-17T04:54:36.517Z,11.06
2017-09-17T04:55:36.488Z,11.13
2017-09-17T04:56:36.459Z,11.11
2017-09-17T04:57:36.759Z,11.1
2017-09-17T04:58:36.728Z,11.14
2017-09-17T04:59:36.392Z,11.11
2017-09-17T05:00:36.686Z,11.14
2017-09-17T05:01:36.671Z,11.1
2017-09-17T05:02:36.020Z,11.06
2017-09-17T05:03:36.319Z,11.11
2017-09-17T05:04:36.610Z,11.15
2017-09-17T05:05:36.269Z,11.14
2017-09-17T05:06:36.569Z,11.06
2017-09-17T05:07:35.921Z,11.03
2017-09-17T05:08:36.521Z,11
2017-09-17T05:09:36.200Z,10.99
2017-09-17T05:10:36.167Z,10.85
2017-09-17T05:11:36.161Z,10.8
2017-09-17T05:12:36.131Z,10.87
2017-09-17T05:13:36.419Z,10.98
2017-09-17T05:14:36.396Z,10.92
2017-09-17T05:15:36.070Z,10.95
2017-09-17T05:16:36.350Z,10.92
2017-09-17T05:17:36.030Z,10.89
2017-09-17T05:18:36.011Z,10.9
2017-09-17T05:19:35.997Z,10.92
2017-09-17T05:20:35.970Z,10.96
2017-09-17T05:21:35.950Z,10.98
2017-09-17T05:22:36.242Z,10.98
2017-09-17T05:23:36.208Z,10.96
2017-09-17T05:24:36.210Z,10.89
2017-09-17T05:25:35.854Z,11
2017-09-17T05:26:36.189Z,10.99
2017-09-17T05:27:36.127Z,10.98
2017-09-17T05:28:35.800Z,10.98
2017-09-17T05:29:36.101Z,10.98
2017-09-17T05:30:36.072Z,10.95
2017-09-17T05:31:36.040Z,10.98
2017-09-17T05:32:36.100Z,10.95
2017-09-17T05:33:36.010Z,11
2017-09-17T05:34:35.710Z,11.02
2017-09-17T05:35:35.970Z,10.99
2017-09-17T05:36:35.660Z,11.02
2017-09-17T05:37:35.932Z,11.06
2017-09-17T05:38:35.921Z,11.02
2017-09-17T05:39:35.570Z,11
2017-09-17T05:40:35.873Z,11.03
2017-09-17T05:41:35.895Z,11.05
2017-09-17T05:42:35.836Z,10.98
2017-09-17T05:43:35.485Z,11.02
2017-09-17T05:44:35.804Z,11.05
2017-09-17T05:45:35.759Z,11.03
2017-09-17T05:46:35.821Z,11.05
2017-09-17T05:47:35.724Z,10.93
2017-09-17T05:48:35.083Z,10.92
2017-09-17T05:49:35.373Z,10.9
2017-09-17T05:50:35.344Z,10.87
2017-09-17T05:51:35.326Z,10.89
2017-09-17T05:52:35.622Z,10.87
2017-09-17T05:53:35.601Z,10.81
2017-09-17T05:54:35.570Z,10.74
2017-09-17T05:55:35.551Z,10.84
2017-09-17T05:56:35.535Z,10.9
2017-09-17T05:57:35.523Z,10.9
2017-09-17T05:58:35.486Z,10.92
2017-09-17T05:59:35.462Z,10.93
2017-09-17T06:00:34.829Z,10.99
2017-09-17T06:01:35.430Z,10.95
2017-09-17T06:02:34.799Z,11.02
2017-09-17T06:03:35.091Z,11.03
2017-09-17T06:04:35.357Z,11.05
2017-09-17T06:05:35.023Z,11.05
2017-09-17T06:06:35.371Z,11.05
2017-09-17T06:07:34.989Z,10.99
2017-09-17T06:08:34.965Z,11.03
2017-09-17T06:09:34.973Z,11.06
2017-09-17T06:10:35.242Z,11.02
2017-09-17T06:11:34.911Z,11.05
2017-09-17T06:12:34.888Z,11.02
2017-09-17T06:13:35.219Z,11.06
2017-09-17T06:14:35.160Z,11.06
2017-09-17T06:15:34.833Z,10.93
2017-09-17T06:16:34.810Z,11.02
2017-09-17T06:17:34.801Z,10.87
2017-09-17T06:18:35.106Z,10.84
2017-09-17T06:19:34.741Z,10.87
2017-09-17T06:20:35.041Z,10.84
2017-09-17T06:21:35.030Z,10.53
2017-09-17T06:22:34.999Z,10.59
2017-09-17T06:23:34.662Z,10.55
2017-09-17T06:24:34.950Z,10.44
2017-09-17T06:25:34.321Z,10.3
2017-09-17T06:26:34.599Z,10.26
2017-09-17T06:27:34.899Z,10.21
2017-09-17T06:28:34.871Z,10.33
2017-09-17T06:29:34.859Z,10.53
2017-09-17T06:30:34.520Z,10.56
2017-09-17T06:31:34.821Z,10.71
2017-09-17T06:32:34.480Z,10.8
2017-09-17T06:33:34.762Z,10.9
2017-09-17T06:34:34.428Z,10.93
2017-09-17T06:35:34.150Z,10.87
2017-09-17T06:36:34.093Z,10.87
2017-09-17T06:37:34.682Z,11.02
2017-09-17T06:38:34.340Z,11.03
2017-09-17T06:39:34.660Z,11.18
2017-09-17T06:40:34.620Z,11.21
2017-09-17T06:41:33.979Z,11.36
2017-09-17T06:42:34.268Z,11.46
2017-09-17T06:43:34.591Z,11.48
2017-09-17T06:44:34.534Z,11.6
2017-09-17T06:45:34.570Z,11.69
2017-09-17T06:46:34.184Z,11.84
2017-09-17T06:47:34.180Z,11.79
2017-09-17T06:48:33.840Z,11.89
2017-09-17T06:49:34.473Z,11.71
2017-09-17T06:50:34.110Z,11.79
2017-09-17T06:51:34.429Z,12.03
2017-09-17T06:52:34.060Z,12.1
2017-09-17T06:53:33.799Z,12.34
2017-09-17T06:54:33.721Z,12.52
2017-09-17T06:55:34.338Z,12.92
2017-09-17T06:56:33.681Z,13.19
2017-09-17T06:57:34.069Z,13.47
2017-09-17T06:58:34.308Z,13.74
2017-09-17T06:59:33.970Z,14.35
2017-09-17T07:00:33.926Z,14.72
2017-09-17T07:01:33.998Z,14.48
2017-09-17T07:02:34.242Z,14.35
2017-09-17T07:03:34.200Z,14.15
2017-09-17T07:04:34.170Z,14.82
2017-09-17T07:05:33.572Z,15.46
2017-09-17T07:06:34.131Z,16.04
2017-09-17T07:07:34.111Z,16.45
2017-09-17T07:08:34.082Z,15.89
2017-09-17T07:09:33.511Z,16.35
2017-09-17T07:10:33.430Z,16.78
2017-09-17T07:11:34.083Z,17.31
2017-09-17T07:12:33.720Z,16.63
2017-09-17T07:13:33.381Z,16.48
2017-09-17T07:14:33.719Z,17
2017-09-17T07:15:34.017Z,16.93
2017-09-17T07:16:33.694Z,16.63
2017-09-17T07:17:33.317Z,16.21
2017-09-17T07:18:33.599Z,16.08
2017-09-17T07:19:33.272Z,15.69
2017-09-17T07:20:33.588Z,15.65
2017-09-17T07:21:33.869Z,15.72
2017-09-17T07:22:33.660Z,15.76
2017-09-17T07:23:33.829Z,15.77
2017-09-17T07:24:33.611Z,15.76
2017-09-17T07:25:33.897Z,15.75
2017-09-17T07:26:33.797Z,15.98
2017-09-17T07:27:33.762Z,15.65
2017-09-17T07:28:33.749Z,15.37
2017-09-17T07:29:33.730Z,15.07
2017-09-17T07:30:33.721Z,15.09
2017-09-17T07:31:33.389Z,15.12
2017-09-17T07:32:33.700Z,15.57
2017-09-17T07:33:33.681Z,16.12
2017-09-17T07:34:33.652Z,16.07
2017-09-17T07:35:33.641Z,16.36
2017-09-17T07:36:33.669Z,16.68
2017-09-17T07:37:33.626Z,17.03
2017-09-17T07:38:33.605Z,17.26
2017-09-17T07:39:33.586Z,17.67
2017-09-17T07:40:33.586Z,17.56
2017-09-17T07:41:33.564Z,17.51
2017-09-17T07:42:33.227Z,17.03
2017-09-17T07:43:33.540Z,16.64
2017-09-17T07:44:33.209Z,16.46
2017-09-17T07:45:33.515Z,16.35
2017-09-17T07:46:33.505Z,16.51
2017-09-17T07:47:33.503Z,16.6
2017-09-17T07:48:33.472Z,15.6
2017-09-17T07:49:33.460Z,14.95
2017-09-17T07:50:33.140Z,15.07
2017-09-17T07:51:33.110Z,15.07
2017-09-17T07:52:33.435Z,14.91
2017-09-17T07:53:33.418Z,15.06
2017-09-17T07:54:33.390Z,15.1
2017-09-17T07:55:33.372Z,15.22
2017-09-17T07:56:33.361Z,15.31
2017-09-17T07:57:33.060Z,15.61
2017-09-17T07:58:33.321Z,15.71
2017-09-17T07:59:33.310Z,15.69
2017-09-17T08:00:33.011Z,15.64
2017-09-17T08:01:33.315Z,14.84
2017-09-17T08:02:33.291Z,14.46
2017-09-17T08:03:32.949Z,15.1
2017-09-17T08:04:32.942Z,16.01
2017-09-17T08:05:32.917Z,16.61
2017-09-17T08:06:33.211Z,17.34
2017-09-17T08:07:33.200Z,17.62
2017-09-17T08:08:33.200Z,18.32
2017-09-17T08:09:33.189Z,18.35
2017-09-17T08:10:33.162Z,17.34
2017-09-17T08:11:33.148Z,18.29
2017-09-17T08:12:33.136Z,19.34
2017-09-17T08:13:32.829Z,20.07
2017-09-17T08:14:33.140Z,20.63
2017-09-17T08:15:33.124Z,20.92
2017-09-17T08:16:33.100Z,21.24
2017-09-17T08:17:33.100Z,21.34
2017-09-17T08:18:33.081Z,21.8
2017-09-17T08:19:33.073Z,22.14
2017-09-17T08:20:32.761Z,22.43
2017-09-17T08:21:33.060Z,22.45
2017-09-17T08:22:33.061Z,21.25
2017-09-17T08:23:32.721Z,21.74
2017-09-17T08:24:32.421Z,20.33
2017-09-17T08:25:32.720Z,20.79
2017-09-17T08:26:33.018Z,21.66
2017-09-17T08:27:32.711Z,22.12
2017-09-17T08:28:33.011Z,22.5
2017-09-17T08:29:33.010Z,23.09
2017-09-17T08:30:33.001Z,21.99
2017-09-17T08:31:32.690Z,22.57
2017-09-17T08:32:32.679Z,21.8
2017-09-17T08:33:32.983Z,21.4
2017-09-17T08:34:32.990Z,20.41
2017-09-17T08:35:33.020Z,19.56
2017-09-17T08:36:32.349Z,18.44
2017-09-17T08:37:32.962Z,18.42
2017-09-17T08:38:32.329Z,18.48
2017-09-17T08:39:32.659Z,18.48
2017-09-17T08:40:32.628Z,18.77
2017-09-17T08:41:32.619Z,19.06
2017-09-17T08:42:32.930Z,19.69
2017-09-17T08:43:32.619Z,20.43
2017-09-17T08:44:32.300Z,20.64
2017-09-17T08:45:32.900Z,21
2017-09-17T08:46:32.902Z,20.79
2017-09-17T08:47:32.577Z,20.7
2017-09-17T08:48:32.892Z,20.79
2017-09-17T08:49:32.870Z,21.22
2017-09-17T08:50:32.237Z,20.66
2017-09-17T08:51:32.566Z,21.25
2017-09-17T08:52:32.860Z,20.7
2017-09-17T08:53:32.859Z,20.29
2017-09-17T08:54:32.853Z,20.43
2017-09-17T08:55:32.828Z,20.92
2017-09-17T08:56:32.512Z,21.47
2017-09-17T08:57:32.840Z,21.56
2017-09-17T08:58:32.820Z,21.79
2017-09-17T08:59:32.804Z,21.59
2017-09-17T09:00:32.482Z,21.47
2017-09-17T09:01:32.891Z,20.48
2017-09-17T09:02:32.819Z,19.76
2017-09-17T09:03:32.850Z,19.53
2017-09-17T09:04:32.837Z,20.36
2017-09-17T09:05:32.890Z,19.98
2017-09-17T09:06:32.481Z,19.86
2017-09-17T09:07:32.801Z,20.17
2017-09-17T09:08:32.746Z,20.01
2017-09-17T09:09:32.811Z,20.26
2017-09-17T09:10:32.428Z,20.25
2017-09-17T09:11:32.421Z,20.81
2017-09-17T09:12:32.421Z,21.44
2017-09-17T09:13:32.747Z,21.68
2017-09-17T09:14:32.423Z,21.97
2017-09-17T09:15:32.422Z,22.27
2017-09-17T09:16:32.400Z,22.69
2017-09-17T09:17:32.711Z,22.8
2017-09-17T09:18:32.702Z,22.45
2017-09-17T09:19:32.688Z,21.36
2017-09-17T09:20:32.690Z,20.52
2017-09-17T09:21:32.688Z,20.43
2017-09-17T09:22:32.448Z,19.8
2017-09-17T09:23:32.339Z,19.74
2017-09-17T09:24:32.653Z,20.07
2017-09-17T09:25:32.653Z,20.44
2017-09-17T09:26:32.331Z,20.48
2017-09-17T09:27:32.618Z,20.79
2017-09-17T09:28:32.613Z,21.62
2017-09-17T09:29:32.295Z,21.93
2017-09-17T09:30:32.613Z,21.9
2017-09-17T09:31:32.611Z,22.14
2017-09-17T09:32:32.581Z,22.59
2017-09-17T09:33:32.572Z,22.54
2017-09-17T09:34:32.560Z,22.55
2017-09-17T09:35:32.611Z,22.92
2017-09-17T09:36:32.578Z,23.28
2017-09-17T09:37:32.558Z,22.65
2017-09-17T09:38:32.613Z,22.36
2017-09-17T09:39:32.540Z,22.08
2017-09-17T09:40:32.592Z,22.05
2017-09-17T09:41:32.600Z,22.54
2017-09-17T09:42:32.593Z,22.88
2017-09-17T09:43:32.503Z,23.41
2017-09-17T09:44:32.521Z,23.54
2017-09-17T09:45:32.240Z,22.89
2017-09-17T09:46:32.487Z,23.24
2017-09-17T09:47:32.180Z,23.03
2017-09-17T09:48:32.178Z,22.94
2017-09-17T09:49:32.171Z,23.16
2017-09-17T09:50:32.531Z,23.59
2017-09-17T09:51:32.472Z,23.5
2017-09-17T09:52:32.472Z,23.84
2017-09-17T09:53:32.453Z,23.97
2017-09-17T09:54:32.140Z,24.07
2017-09-17T09:55:32.451Z,23.24
2017-09-17T09:56:32.484Z,21.76
2017-09-17T09:57:32.140Z,22.17
2017-09-17T09:58:32.451Z,22.7
2017-09-17T09:59:32.422Z,22.69
2017-09-17T10:00:32.412Z,22.37
2017-09-17T10:01:32.095Z,22.91
2017-09-17T10:02:32.409Z,23.04
2017-09-17T10:03:32.414Z,23.17
2017-09-17T10:04:32.071Z,22.42
2017-09-17T10:05:32.062Z,22.85
2017-09-17T10:06:31.758Z,21.97
2017-09-17T10:07:32.373Z,21.54
2017-09-17T10:08:32.041Z,21.66
2017-09-17T10:09:32.092Z,21.44
2017-09-17T10:10:32.341Z,20.92
2017-09-17T10:11:32.389Z,20.91
2017-09-17T10:12:32.324Z,20.85
2017-09-17T10:13:32.313Z,21.22
2017-09-17T10:14:31.690Z,21.79
2017-09-17T10:15:32.011Z,22.1
2017-09-17T10:16:32.293Z,22.76
2017-09-17T10:17:32.429Z,23.54
2017-09-17T10:18:32.301Z,23.85
2017-09-17T10:19:32.352Z,23.29
2017-09-17T10:20:31.962Z,22.4
2017-09-17T10:21:32.274Z,21.74
2017-09-17T10:22:32.310Z,21.92
2017-09-17T10:23:32.251Z,22.67
2017-09-17T10:24:32.241Z,23.33
2017-09-17T10:25:32.233Z,23.57
2017-09-17T10:26:32.231Z,22.62
2017-09-17T10:27:31.582Z,22.47
2017-09-17T10:28:32.242Z,22.69
2017-09-17T10:29:32.253Z,22.98
2017-09-17T10:30:32.163Z,22.73
2017-09-17T10:31:32.165Z,22.45
2017-09-17T10:32:31.841Z,22.18
2017-09-17T10:33:32.157Z,22.42
2017-09-17T10:34:32.138Z,22.98
2017-09-17T10:35:31.833Z,22.35
2017-09-17T10:36:31.811Z,22.52
2017-09-17T10:37:32.103Z,22.61
2017-09-17T10:38:31.848Z,23.27
2017-09-17T10:39:31.780Z,23.19
2017-09-17T10:40:31.762Z,23.5
2017-09-17T10:41:32.072Z,22.51
2017-09-17T10:42:32.070Z,22.25
2017-09-17T10:43:32.040Z,22.67
2017-09-17T10:44:32.035Z,23.19
2017-09-17T10:45:31.401Z,22.42
2017-09-17T10:46:31.780Z,22.42
2017-09-17T10:47:32.020Z,23.02
2017-09-17T10:48:32.003Z,23.47
2017-09-17T10:49:31.676Z,22.45
2017-09-17T10:50:31.984Z,22.72
2017-09-17T10:51:31.962Z,22.73
2017-09-17T10:52:31.950Z,22.35
2017-09-17T10:53:31.644Z,22.14
2017-09-17T10:54:31.942Z,22.37
2017-09-17T10:55:31.306Z,22.08
2017-09-17T10:56:31.922Z,22.69
2017-09-17T10:57:31.901Z,22.97
2017-09-17T10:58:31.894Z,22.77
2017-09-17T10:59:31.901Z,22.62
2017-09-17T11:00:31.570Z,21.86
2017-09-17T11:01:31.861Z,21.65
2017-09-17T11:02:31.842Z,21.4
2017-09-17T11:03:31.861Z,21.84
2017-09-17T11:04:31.843Z,22.58
2017-09-17T11:05:31.852Z,23.28
2017-09-17T11:06:31.501Z,23.92
2017-09-17T11:07:31.182Z,24.15
2017-09-17T11:08:31.729Z,22.92
2017-09-17T11:09:31.471Z,22.74
2017-09-17T11:10:31.781Z,23.1
2017-09-17T11:11:31.749Z,22.4
2017-09-17T11:12:31.128Z,22.18
2017-09-17T11:13:31.739Z,22.35
2017-09-17T11:14:31.104Z,22.82
2017-09-17T11:15:31.411Z,23.03
2017-09-17T11:16:31.765Z,22.3
2017-09-17T11:17:31.389Z,22.76
2017-09-17T11:18:31.361Z,22.95
2017-09-17T11:19:31.679Z,22.62
2017-09-17T11:20:31.350Z,22.67
2017-09-17T11:21:31.652Z,23.14
2017-09-17T11:22:31.345Z,23.03
2017-09-17T11:23:31.696Z,22.98
2017-09-17T11:24:31.610Z,23.29
2017-09-17T11:25:31.287Z,23.55
2017-09-17T11:26:31.733Z,23.52
2017-09-17T11:27:31.300Z,23.81
2017-09-17T11:28:31.512Z,24.32
2017-09-17T11:29:31.560Z,24.44
2017-09-17T11:30:31.562Z,24.39
2017-09-17T11:31:31.540Z,23.32
2017-09-17T11:32:31.528Z,23.41
2017-09-17T11:33:31.231Z,23.04
2017-09-17T11:34:31.211Z,21.9
2017-09-17T11:35:31.533Z,22.12
2017-09-17T11:36:31.498Z,21.61
2017-09-17T11:37:31.497Z,21.83
2017-09-17T11:38:31.178Z,21.95
2017-09-17T11:39:31.462Z,22.21
2017-09-17T11:40:31.440Z,22.47
2017-09-17T11:41:31.423Z,22.57
2017-09-17T11:42:31.129Z,22.57
2017-09-17T11:43:31.420Z,23.04
2017-09-17T11:44:31.414Z,23.4
2017-09-17T11:45:31.392Z,23.41
2017-09-17T11:46:31.393Z,23.4
2017-09-17T11:47:31.064Z,23.17
2017-09-17T11:48:31.370Z,23.27
2017-09-17T11:49:31.368Z,23.25
2017-09-17T11:50:31.339Z,23.12
2017-09-17T11:51:31.331Z,23.14
2017-09-17T11:52:31.005Z,23.14
2017-09-17T11:53:31.318Z,23.06
2017-09-17T11:54:31.302Z,22.82
2017-09-17T11:55:31.306Z,22.58
2017-09-17T11:56:31.326Z,22.4
2017-09-17T11:57:31.280Z,22.17
2017-09-17T11:58:30.940Z,22.37
2017-09-17T11:59:31.239Z,22.72
2017-09-17T12:00:31.233Z,23.16
2017-09-17T12:01:31.222Z,22.91
2017-09-17T12:02:31.220Z,22.97
2017-09-17T12:03:31.196Z,22.89
2017-09-17T12:04:30.878Z,23.07
2017-09-17T12:05:31.333Z,23.02
2017-09-17T12:06:31.183Z,23.12
2017-09-17T12:07:31.172Z,23.04
2017-09-17T12:08:31.149Z,22.95
2017-09-17T12:09:31.132Z,22.69
2017-09-17T12:10:30.812Z,22.7
2017-09-17T12:11:31.108Z,22.62
2017-09-17T12:12:31.115Z,22.54
2017-09-17T12:13:31.174Z,22.8
2017-09-17T12:14:31.105Z,23.07
2017-09-17T12:15:31.090Z,23.09
2017-09-17T12:16:31.039Z,23.19
2017-09-17T12:17:31.076Z,22.69
2017-09-17T12:18:30.721Z,22.51
2017-09-17T12:19:31.064Z,22.54
2017-09-17T12:20:31.020Z,22.52
2017-09-17T12:21:30.690Z,22.52
2017-09-17T12:22:30.669Z,22.36
2017-09-17T12:23:30.969Z,22.33
2017-09-17T12:24:30.981Z,22.24
2017-09-17T12:25:30.692Z,22.14
2017-09-17T12:26:30.620Z,22
2017-09-17T12:27:30.909Z,21.84
2017-09-17T12:28:30.287Z,21.81
2017-09-17T12:29:30.949Z,21.25
2017-09-17T12:30:30.931Z,20.78
2017-09-17T12:31:30.870Z,20.6
2017-09-17T12:32:30.573Z,20.52
2017-09-17T12:33:30.530Z,20.54
2017-09-17T12:34:30.520Z,20.69
2017-09-17T12:35:30.821Z,20.84
2017-09-17T12:36:30.801Z,20.82
2017-09-17T12:37:30.790Z,20.88
2017-09-17T12:38:30.533Z,21.02
2017-09-17T12:39:30.780Z,21.04
2017-09-17T12:40:30.773Z,20.97
2017-09-17T12:41:30.741Z,21.18
2017-09-17T12:42:30.729Z,21.31
2017-09-17T12:43:30.740Z,21.33
2017-09-17T12:44:30.689Z,21.24
2017-09-17T12:45:30.700Z,21.24
2017-09-17T12:46:30.687Z,21.37
2017-09-17T12:47:30.390Z,21.44
2017-09-17T12:48:30.395Z,21.4
2017-09-17T12:49:30.634Z,21.33
2017-09-17T12:50:30.623Z,21.36
2017-09-17T12:51:29.994Z,21.07
2017-09-17T12:52:30.602Z,21.06
2017-09-17T12:53:30.581Z,21.04
2017-09-17T12:54:30.352Z,21
2017-09-17T12:55:30.570Z,21.11
2017-09-17T12:56:30.538Z,21.09